sensor_id;sensor_type;location;lat;lon;timestamp;pressure;altitude;pressure_sealevel;temperature;humidity
64668;BME280;51077;42.716;23.344;2022-07-23T00:00:39;95612.63;;;24.16;44.07
64668;BME280;51077;42.716;23.344;2022-07-23T00:03:05;95617.34;;;24.14;44.58
64668;BME280;51077;42.716;23.344;2022-07-23T00:05:32;95618.53;;;24.11;44.71
64668;BME280;51077;42.716;23.344;2022-07-23T00:07:57;95622.69;;;24.10;44.66
64668;BME280;51077;42.716;23.344;2022-07-23T00:10:23;95616.34;;;24.09;44.68
64668;BME280;51077;42.716;23.344;2022-07-23T00:12:48;95617.53;;;24.06;45.01
64668;BME280;51077;42.716;23.344;2022-07-23T00:15:13;95620.78;;;24.02;44.88
64668;BME280;51077;42.716;23.344;2022-07-23T00:17:39;95625.53;;;24.00;45.26
64668;BME280;51077;42.716;23.344;2022-07-23T00:20:05;95626.09;;;23.98;45.39
64668;BME280;51077;42.716;23.344;2022-07-23T00:22:30;95622.44;;;23.96;45.43
64668;BME280;51077;42.716;23.344;2022-07-23T00:24:56;95629.94;;;23.93;45.37
64668;BME280;51077;42.716;23.344;2022-07-23T00:27:22;95633.97;;;23.90;45.36
64668;BME280;51077;42.716;23.344;2022-07-23T00:29:47;95629.53;;;23.87;45.29
64668;BME280;51077;42.716;23.344;2022-07-23T00:32:12;95629.25;;;23.83;45.30
64668;BME280;51077;42.716;23.344;2022-07-23T00:34:38;95638.84;;;23.80;45.42
64668;BME280;51077;42.716;23.344;2022-07-23T00:37:04;95632.06;;;23.73;45.55
64668;BME280;51077;42.716;23.344;2022-07-23T00:39:29;95630.56;;;23.72;45.45
64668;BME280;51077;42.716;23.344;2022-07-23T00:41:54;95632.34;;;23.68;45.54
64668;BME280;51077;42.716;23.344;2022-07-23T00:44:22;95629.41;;;23.66;45.53
64668;BME280;51077;42.716;23.344;2022-07-23T00:46:51;95632.63;;;23.62;45.35
64668;BME280;51077;42.716;23.344;2022-07-23T00:49:20;95630.28;;;23.58;45.51
64668;BME280;51077;42.716;23.344;2022-07-23T00:51:45;95634.28;;;23.55;45.34
64668;BME280;51077;42.716;23.344;2022-07-23T00:54:11;95627.19;;;23.54;45.40
64668;BME280;51077;42.716;23.344;2022-07-23T00:56:37;95626.16;;;23.50;45.53
64668;BME280;51077;42.716;23.344;2022-07-23T00:59:02;95628.66;;;23.46;45.61
64668;BME280;51077;42.716;23.344;2022-07-23T01:01:28;95630.00;;;23.45;45.41
64668;BME280;51077;42.716;23.344;2022-07-23T01:03:53;95619.97;;;23.42;45.39
64668;BME280;51077;42.716;23.344;2022-07-23T01:06:19;95626.59;;;23.37;45.41
64668;BME280;51077;42.716;23.344;2022-07-23T01:08:44;95629.41;;;23.37;45.33
64668;BME280;51077;42.716;23.344;2022-07-23T01:11:10;95633.53;;;23.36;45.40
64668;BME280;51077;42.716;23.344;2022-07-23T01:13:41;95629.69;;;23.31;45.26
64668;BME280;51077;42.716;23.344;2022-07-23T01:16:07;95625.88;;;23.26;45.03
64668;BME280;51077;42.716;23.344;2022-07-23T01:18:32;95621.31;;;23.21;45.29
64668;BME280;51077;42.716;23.344;2022-07-23T01:20:58;95621.13;;;23.19;45.59
64668;BME280;51077;42.716;23.344;2022-07-23T01:23:23;95623.81;;;23.17;45.58
64668;BME280;51077;42.716;23.344;2022-07-23T01:25:52;95628.66;;;23.17;45.59
64668;BME280;51077;42.716;23.344;2022-07-23T01:28:17;95625.69;;;23.15;45.77
64668;BME280;51077;42.716;23.344;2022-07-23T01:30:43;95620.09;;;23.15;46.11
64668;BME280;51077;42.716;23.344;2022-07-23T01:33:08;95617.31;;;23.15;45.92
64668;BME280;51077;42.716;23.344;2022-07-23T01:35:33;95616.44;;;23.12;46.05
64668;BME280;51077;42.716;23.344;2022-07-23T01:37:59;95614.22;;;23.11;46.35
64668;BME280;51077;42.716;23.344;2022-07-23T01:40:24;95615.53;;;23.10;46.49
64668;BME280;51077;42.716;23.344;2022-07-23T01:42:50;95615.41;;;23.07;46.79
64668;BME280;51077;42.716;23.344;2022-07-23T01:45:15;95619.50;;;23.06;46.68
64668;BME280;51077;42.716;23.344;2022-07-23T01:47:40;95619.38;;;23.04;46.68
64668;BME280;51077;42.716;23.344;2022-07-23T01:50:06;95621.28;;;23.02;46.98
64668;BME280;51077;42.716;23.344;2022-07-23T01:52:32;95623.19;;;22.99;47.21
64668;BME280;51077;42.716;23.344;2022-07-23T01:54:57;95616.09;;;22.98;47.09
64668;BME280;51077;42.716;23.344;2022-07-23T01:57:23;95621.41;;;22.94;46.94
64668;BME280;51077;42.716;23.344;2022-07-23T01:59:48;95616.41;;;22.93;47.15
64668;BME280;51077;42.716;23.344;2022-07-23T02:02:13;95620.94;;;22.88;47.47
64668;BME280;51077;42.716;23.344;2022-07-23T02:04:39;95618.56;;;22.84;47.63
64668;BME280;51077;42.716;23.344;2022-07-23T02:07:05;95627.38;;;22.81;47.80
64668;BME280;51077;42.716;23.344;2022-07-23T02:09:30;95631.38;;;22.78;47.75
64668;BME280;51077;42.716;23.344;2022-07-23T02:11:56;95633.13;;;22.73;47.93
64668;BME280;51077;42.716;23.344;2022-07-23T02:14:23;95632.09;;;22.69;48.09
64668;BME280;51077;42.716;23.344;2022-07-23T02:16:48;95623.53;;;22.67;47.90
64668;BME280;51077;42.716;23.344;2022-07-23T02:19:14;95623.81;;;22.61;48.22
64668;BME280;51077;42.716;23.344;2022-07-23T02:21:39;95626.13;;;22.55;48.57
64668;BME280;51077;42.716;23.344;2022-07-23T02:24:05;95625.25;;;22.52;48.43
64668;BME280;51077;42.716;23.344;2022-07-23T02:26:31;95629.97;;;22.50;48.22
64668;BME280;51077;42.716;23.344;2022-07-23T02:29:00;95633.34;;;22.48;48.63
64668;BME280;51077;42.716;23.344;2022-07-23T02:31:25;95636.56;;;22.45;48.75
64668;BME280;51077;42.716;23.344;2022-07-23T02:33:50;95629.19;;;22.40;48.41
64668;BME280;51077;42.716;23.344;2022-07-23T02:36:16;95629.78;;;22.38;48.74
64668;BME280;51077;42.716;23.344;2022-07-23T02:38:41;95634.34;;;22.33;48.48
64668;BME280;51077;42.716;23.344;2022-07-23T02:41:07;95636.22;;;22.31;48.90
64668;BME280;51077;42.716;23.344;2022-07-23T02:43:32;95640.03;;;22.26;49.04
64668;BME280;51077;42.716;23.344;2022-07-23T02:45:57;95644.16;;;22.25;48.82
64668;BME280;51077;42.716;23.344;2022-07-23T02:48:23;95638.97;;;22.21;49.24
64668;BME280;51077;42.716;23.344;2022-07-23T02:50:48;95646.47;;;22.19;49.27
64668;BME280;51077;42.716;23.344;2022-07-23T02:53:14;95646.31;;;22.17;49.46
64668;BME280;51077;42.716;23.344;2022-07-23T02:55:39;95646.88;;;22.15;49.22
64668;BME280;51077;42.716;23.344;2022-07-23T02:58:04;95650.28;;;22.14;49.09
64668;BME280;51077;42.716;23.344;2022-07-23T03:00:30;95656.44;;;22.12;49.42
64668;BME280;51077;42.716;23.344;2022-07-23T03:02:55;95654.03;;;22.08;49.27
64668;BME280;51077;42.716;23.344;2022-07-23T03:05:21;95662.25;;;22.06;49.39
64668;BME280;51077;42.716;23.344;2022-07-23T03:07:46;95658.00;;;22.05;49.62
64668;BME280;51077;42.716;23.344;2022-07-23T03:10:11;95658.59;;;22.04;49.84
64668;BME280;51077;42.716;23.344;2022-07-23T03:12:37;95659.31;;;22.04;49.78
64668;BME280;51077;42.716;23.344;2022-07-23T03:15:03;95662.69;;;22.03;49.68
64668;BME280;51077;42.716;23.344;2022-07-23T03:17:28;95675.91;;;22.02;49.53
64668;BME280;51077;42.716;23.344;2022-07-23T03:19:54;95664.59;;;22.00;49.59
64668;BME280;51077;42.716;23.344;2022-07-23T03:22:19;95678.56;;;22.00;49.83
64668;BME280;51077;42.716;23.344;2022-07-23T03:24:44;95667.22;;;21.98;49.62
64668;BME280;51077;42.716;23.344;2022-07-23T03:27:19;95672.66;;;21.96;49.80
64668;BME280;51077;42.716;23.344;2022-07-23T03:29:44;95676.78;;;21.95;49.58
64668;BME280;51077;42.716;23.344;2022-07-23T03:32:09;95671.91;;;21.96;49.76
64668;BME280;51077;42.716;23.344;2022-07-23T03:34:35;95676.78;;;21.95;49.64
64668;BME280;51077;42.716;23.344;2022-07-23T03:37:01;95679.56;;;21.95;49.85
64668;BME280;51077;42.716;23.344;2022-07-23T03:39:27;95679.56;;;21.95;49.55
64668;BME280;51077;42.716;23.344;2022-07-23T03:41:52;95677.50;;;21.96;49.83
64668;BME280;51077;42.716;23.344;2022-07-23T03:44:18;95681.63;;;21.95;49.36
64668;BME280;51077;42.716;23.344;2022-07-23T03:46:43;95678.97;;;21.97;49.60
64668;BME280;51077;42.716;23.344;2022-07-23T03:49:09;95676.91;;;21.97;49.36
64668;BME280;51077;42.716;23.344;2022-07-23T03:51:34;95675.59;;;21.98;49.48
64668;BME280;51077;42.716;23.344;2022-07-23T03:53:59;95689.75;;;22.00;49.68
64668;BME280;51077;42.716;23.344;2022-07-23T03:56:25;95685.06;;;22.03;49.79
64668;BME280;51077;42.716;23.344;2022-07-23T03:58:51;95683.16;;;22.05;49.75
64668;BME280;51077;42.716;23.344;2022-07-23T04:01:16;95684.94;;;22.11;49.45
64668;BME280;51077;42.716;23.344;2022-07-23T04:03:42;95684.41;;;22.12;49.79
64668;BME280;51077;42.716;23.344;2022-07-23T04:06:07;95685.28;;;22.15;49.75
64668;BME280;51077;42.716;23.344;2022-07-23T04:08:33;95692.09;;;22.21;49.65
64668;BME280;51077;42.716;23.344;2022-07-23T04:10:58;95686.66;;;22.23;49.75
64668;BME280;51077;42.716;23.344;2022-07-23T04:13:24;95693.31;;;22.28;49.42
64668;BME280;51077;42.716;23.344;2022-07-23T04:15:49;95687.63;;;22.36;49.58
64668;BME280;51077;42.716;23.344;2022-07-23T04:18:16;95685.13;;;22.40;49.29
64668;BME280;51077;42.716;23.344;2022-07-23T04:20:47;95687.09;;;22.47;49.33
64668;BME280;51077;42.716;23.344;2022-07-23T04:23:12;95691.66;;;22.52;49.10
64668;BME280;51077;42.716;23.344;2022-07-23T04:25:38;95690.06;;;22.58;48.80
64668;BME280;51077;42.716;23.344;2022-07-23T04:28:03;95693.91;;;22.63;48.77
64668;BME280;51077;42.716;23.344;2022-07-23T04:30:29;95695.72;;;22.68;48.40
64668;BME280;51077;42.716;23.344;2022-07-23T04:32:54;95696.59;;;22.71;48.51
64668;BME280;51077;42.716;23.344;2022-07-23T04:35:19;95698.38;;;22.76;48.18
64668;BME280;51077;42.716;23.344;2022-07-23T04:37:45;95695.88;;;22.80;48.30
64668;BME280;51077;42.716;23.344;2022-07-23T04:40:12;95692.06;;;22.85;48.08
64668;BME280;51077;42.716;23.344;2022-07-23T04:42:38;95696.69;;;22.90;47.70
64668;BME280;51077;42.716;23.344;2022-07-23T04:45:04;95691.53;;;22.96;47.76
64668;BME280;51077;42.716;23.344;2022-07-23T04:47:29;95703.19;;;23.02;47.56
64668;BME280;51077;42.716;23.344;2022-07-23T04:49:56;95701.59;;;23.09;47.24
64668;BME280;51077;42.716;23.344;2022-07-23T04:52:21;95707.06;;;23.17;47.33
64668;BME280;51077;42.716;23.344;2022-07-23T04:54:47;95707.81;;;23.27;46.94
64668;BME280;51077;42.716;23.344;2022-07-23T04:57:12;95703.56;;;23.36;46.70
64668;BME280;51077;42.716;23.344;2022-07-23T04:59:38;95703.41;;;23.43;46.58
64668;BME280;51077;42.716;23.344;2022-07-23T05:02:03;95705.19;;;23.48;46.67
64668;BME280;51077;42.716;23.344;2022-07-23T05:04:29;95710.38;;;23.52;46.64
64668;BME280;51077;42.716;23.344;2022-07-23T05:06:54;95706.09;;;23.61;46.35
64668;BME280;51077;42.716;23.344;2022-07-23T05:09:20;95704.47;;;23.67;46.40
64668;BME280;51077;42.716;23.344;2022-07-23T05:11:45;95699.63;;;23.77;45.98
64668;BME280;51077;42.716;23.344;2022-07-23T05:14:11;95697.97;;;23.84;45.95
64668;BME280;51077;42.716;23.344;2022-07-23T05:16:38;95710.53;;;23.93;45.88
64668;BME280;51077;42.716;23.344;2022-07-23T05:19:03;95707.56;;;24.00;45.74
64668;BME280;51077;42.716;23.344;2022-07-23T05:21:29;95710.78;;;24.06;45.53
64668;BME280;51077;42.716;23.344;2022-07-23T05:23:54;95712.72;;;24.14;45.37
64668;BME280;51077;42.716;23.344;2022-07-23T05:26:20;95713.13;;;24.20;45.72
64668;BME280;51077;42.716;23.344;2022-07-23T05:28:45;95710.91;;;24.28;45.49
64668;BME280;51077;42.716;23.344;2022-07-23T05:31:11;95718.44;;;24.35;45.27
64668;BME280;51077;42.716;23.344;2022-07-23T05:33:36;95707.66;;;24.41;45.17
64668;BME280;51077;42.716;23.344;2022-07-23T05:36:02;95708.38;;;24.51;45.12
64668;BME280;51077;42.716;23.344;2022-07-23T05:38:28;95704.63;;;24.58;44.90
64668;BME280;51077;42.716;23.344;2022-07-23T05:40:54;95710.09;;;24.66;44.65
64668;BME280;51077;42.716;23.344;2022-07-23T05:43:19;95717.00;;;24.75;44.87
64668;BME280;51077;42.716;23.344;2022-07-23T05:45:44;95719.75;;;24.85;44.31
64668;BME280;51077;42.716;23.344;2022-07-23T05:48:10;95719.69;;;24.94;44.16
64668;BME280;51077;42.716;23.344;2022-07-23T05:50:35;95710.38;;;25.01;44.13
64668;BME280;51077;42.716;23.344;2022-07-23T05:53:01;95714.63;;;25.12;43.70
64668;BME280;51077;42.716;23.344;2022-07-23T05:55:26;95711.50;;;25.18;43.83
64668;BME280;51077;42.716;23.344;2022-07-23T05:57:55;95717.66;;;25.26;43.49
64668;BME280;51077;42.716;23.344;2022-07-23T06:00:20;95710.09;;;25.28;43.49
64668;BME280;51077;42.716;23.344;2022-07-23T06:02:46;95712.09;;;25.38;43.49
64668;BME280;51077;42.716;23.344;2022-07-23T06:05:11;95711.91;;;25.45;43.21
64668;BME280;51077;42.716;23.344;2022-07-23T06:07:37;95702.38;;;25.50;43.47
64668;BME280;51077;42.716;23.344;2022-07-23T06:10:03;95700.13;;;25.58;43.00
64668;BME280;51077;42.716;23.344;2022-07-23T06:12:29;95701.53;;;25.69;42.43
64668;BME280;51077;42.716;23.344;2022-07-23T06:14:54;95704.28;;;25.79;42.38
64668;BME280;51077;42.716;23.344;2022-07-23T06:17:20;95700.63;;;25.88;42.29
64668;BME280;51077;42.716;23.344;2022-07-23T06:19:45;95706.78;;;25.96;42.34
64668;BME280;51077;42.716;23.344;2022-07-23T06:22:11;95706.59;;;26.04;42.10
64668;BME280;51077;42.716;23.344;2022-07-23T06:24:37;95712.22;;;26.16;42.37
64668;BME280;51077;42.716;23.344;2022-07-23T06:27:03;95705.66;;;26.23;42.10
64668;BME280;51077;42.716;23.344;2022-07-23T06:29:28;95700.53;;;26.31;41.73
64668;BME280;51077;42.716;23.344;2022-07-23T06:31:54;95700.41;;;26.41;41.75
64668;BME280;51077;42.716;23.344;2022-07-23T06:34:19;95697.66;;;26.52;41.66
64668;BME280;51077;42.716;23.344;2022-07-23T06:36:44;95697.53;;;26.62;41.12
64668;BME280;51077;42.716;23.344;2022-07-23T06:39:10;95696.56;;;26.69;41.28
64668;BME280;51077;42.716;23.344;2022-07-23T06:41:36;95704.03;;;26.76;41.26
64668;BME280;51077;42.716;23.344;2022-07-23T06:44:02;95698.88;;;26.85;40.87
64668;BME280;51077;42.716;23.344;2022-07-23T06:46:27;95701.72;;;26.96;40.57
64668;BME280;51077;42.716;23.344;2022-07-23T06:48:52;95703.03;;;27.07;40.13
64668;BME280;51077;42.716;23.344;2022-07-23T06:51:18;95696.56;;;27.16;40.15
64668;BME280;51077;42.716;23.344;2022-07-23T06:53:44;95697.78;;;27.25;40.08
64668;BME280;51077;42.716;23.344;2022-07-23T06:56:09;95689.31;;;27.37;39.60
64668;BME280;51077;42.716;23.344;2022-07-23T06:58:34;95692.22;;;27.50;39.38
64668;BME280;51077;42.716;23.344;2022-07-23T07:01:00;95697.94;;;27.64;39.36
64668;BME280;51077;42.716;23.344;2022-07-23T07:03:25;95695.09;;;27.76;38.89
64668;BME280;51077;42.716;23.344;2022-07-23T07:05:51;95685.16;;;27.87;38.40
64668;BME280;51077;42.716;23.344;2022-07-23T07:08:17;95688.63;;;27.99;38.02
64668;BME280;51077;42.716;23.344;2022-07-23T07:10:42;95689.44;;;28.13;37.92
64668;BME280;51077;42.716;23.344;2022-07-23T07:13:08;95682.47;;;28.28;37.40
64668;BME280;51077;42.716;23.344;2022-07-23T07:15:33;95677.50;;;28.40;37.01
64668;BME280;51077;42.716;23.344;2022-07-23T07:17:58;95677.44;;;28.52;36.61
64668;BME280;51077;42.716;23.344;2022-07-23T07:20:24;95673.28;;;28.67;36.41
64668;BME280;51077;42.716;23.344;2022-07-23T07:22:49;95681.13;;;28.82;36.06
64668;BME280;51077;42.716;23.344;2022-07-23T07:25:15;95673.53;;;28.98;35.61
64668;BME280;51077;42.716;23.344;2022-07-23T07:27:40;95674.44;;;29.17;34.96
64668;BME280;51077;42.716;23.344;2022-07-23T07:30:07;95666.50;;;29.27;34.40
64668;BME280;51077;42.716;23.344;2022-07-23T07:32:32;95672.88;;;29.41;34.30
64668;BME280;51077;42.716;23.344;2022-07-23T07:34:58;95656.50;;;29.53;33.80
64668;BME280;51077;42.716;23.344;2022-07-23T07:37:24;95661.50;;;29.69;33.65
64668;BME280;51077;42.716;23.344;2022-07-23T07:39:49;95663.47;;;29.80;33.32
64668;BME280;51077;42.716;23.344;2022-07-23T07:42:15;95666.69;;;29.88;33.42
64668;BME280;51077;42.716;23.344;2022-07-23T07:44:40;95658.25;;;30.04;33.22
64668;BME280;51077;42.716;23.344;2022-07-23T07:47:06;95658.31;;;30.20;32.85
64668;BME280;51077;42.716;23.344;2022-07-23T07:49:31;95660.25;;;30.31;32.23
64668;BME280;51077;42.716;23.344;2022-07-23T07:51:57;95657.31;;;30.45;32.36
64668;BME280;51077;42.716;23.344;2022-07-23T07:54:22;95660.19;;;30.61;32.15
64668;BME280;51077;42.716;23.344;2022-07-23T07:56:48;95652.34;;;30.75;31.76
64668;BME280;51077;42.716;23.344;2022-07-23T07:59:13;95647.63;;;30.97;31.77
64668;BME280;51077;42.716;23.344;2022-07-23T08:01:40;95653.28;;;31.13;30.83
64668;BME280;51077;42.716;23.344;2022-07-23T08:04:05;95648.50;;;31.34;30.93
64668;BME280;51077;42.716;23.344;2022-07-23T08:06:31;95653.06;;;31.59;30.96
64668;BME280;51077;42.716;23.344;2022-07-23T08:08:56;95648.44;;;31.83;30.29
64668;BME280;51077;42.716;23.344;2022-07-23T08:11:21;95647.19;;;32.06;30.32
64668;BME280;51077;42.716;23.344;2022-07-23T08:13:47;95642.38;;;32.28;30.20
64668;BME280;51077;42.716;23.344;2022-07-23T08:16:13;95652.13;;;32.41;29.42
64668;BME280;51077;42.716;23.344;2022-07-23T08:18:38;95647.22;;;32.62;29.45
64668;BME280;51077;42.716;23.344;2022-07-23T08:21:04;95640.72;;;32.79;29.48
64668;BME280;51077;42.716;23.344;2022-07-23T08:23:31;95640.53;;;32.93;28.88
64668;BME280;51077;42.716;23.344;2022-07-23T08:25:56;95641.56;;;33.01;28.53
64668;BME280;51077;42.716;23.344;2022-07-23T08:28:22;95629.94;;;33.15;28.42
64668;BME280;51077;42.716;23.344;2022-07-23T08:30:48;95636.91;;;33.32;28.08
64668;BME280;51077;42.716;23.344;2022-07-23T08:33:15;95627.56;;;33.49;27.83
64668;BME280;51077;42.716;23.344;2022-07-23T08:35:49;95634.44;;;33.64;27.76
64668;BME280;51077;42.716;23.344;2022-07-23T08:38:17;95634.94;;;33.79;27.40
64668;BME280;51077;42.716;23.344;2022-07-23T08:40:47;95629.16;;;33.98;27.49
64668;BME280;51077;42.716;23.344;2022-07-23T08:43:15;95636.63;;;34.10;27.24
64668;BME280;51077;42.716;23.344;2022-07-23T08:45:43;95632.22;;;34.29;27.01
64668;BME280;51077;42.716;23.344;2022-07-23T08:48:14;95626.56;;;34.31;26.89
64668;BME280;51077;42.716;23.344;2022-07-23T08:50:48;95625.91;;;34.32;26.49
64668;BME280;51077;42.716;23.344;2022-07-23T08:53:15;95628.34;;;34.42;26.63
64668;BME280;51077;42.716;23.344;2022-07-23T08:55:46;95621.50;;;34.51;26.28
64668;BME280;51077;42.716;23.344;2022-07-23T08:58:13;95612.69;;;34.67;26.31
64668;BME280;51077;42.716;23.344;2022-07-23T09:00:39;95613.16;;;34.83;25.95
64668;BME280;51077;42.716;23.344;2022-07-23T09:03:04;95606.53;;;35.00;25.95
64668;BME280;51077;42.716;23.344;2022-07-23T09:05:29;95613.59;;;35.25;25.32
64668;BME280;51077;42.716;23.344;2022-07-23T09:08:11;95604.50;;;35.61;24.90
64668;BME280;51077;42.716;23.344;2022-07-23T09:10:57;95608.03;;;35.88;25.04
64668;BME280;51077;42.716;23.344;2022-07-23T09:16:10;95605.66;;;36.40;24.03
64668;BME280;51077;42.716;23.344;2022-07-23T09:21:52;95607.28;;;36.86;24.05
64668;BME280;51077;42.716;23.344;2022-07-23T09:24:03;95608.19;;;36.92;23.85
64668;BME280;51077;42.716;23.344;2022-07-23T09:26:31;95612.13;;;36.77;23.74
64668;BME280;51077;42.716;23.344;2022-07-23T09:28:59;95605.00;;;36.78;23.13
64668;BME280;51077;42.716;23.344;2022-07-23T09:31:27;95596.72;;;36.92;22.92
64668;BME280;51077;42.716;23.344;2022-07-23T09:34:07;95595.34;;;36.95;22.94
64668;BME280;51077;42.716;23.344;2022-07-23T09:36:33;95592.88;;;37.18;22.46
64668;BME280;51077;42.716;23.344;2022-07-23T09:38:59;95600.28;;;37.31;22.10
64668;BME280;51077;42.716;23.344;2022-07-23T09:41:24;95587.84;;;37.55;22.17
64668;BME280;51077;42.716;23.344;2022-07-23T09:43:54;95576.06;;;37.81;21.54
64668;BME280;51077;42.716;23.344;2022-07-23T09:46:27;95579.31;;;38.05;21.55
64668;BME280;51077;42.716;23.344;2022-07-23T09:48:54;95578.09;;;38.20;21.31
64668;BME280;51077;42.716;23.344;2022-07-23T09:51:22;95574.63;;;38.30;21.19
64668;BME280;51077;42.716;23.344;2022-07-23T09:54:02;95573.44;;;38.45;21.19
64668;BME280;51077;42.716;23.344;2022-07-23T09:56:29;95570.63;;;38.52;20.78
64668;BME280;51077;42.716;23.344;2022-07-23T09:58:55;95567.03;;;38.49;20.23
64668;BME280;51077;42.716;23.344;2022-07-23T10:01:36;95560.75;;;38.65;20.10
64668;BME280;51077;42.716;23.344;2022-07-23T10:04:01;95560.34;;;38.89;20.02
64668;BME280;51077;42.716;23.344;2022-07-23T10:06:27;95559.78;;;39.05;19.38
64668;BME280;51077;42.716;23.344;2022-07-23T10:08:56;95552.75;;;39.20;19.45
64668;BME280;51077;42.716;23.344;2022-07-23T10:11:24;95552.94;;;39.38;19.55
64668;BME280;51077;42.716;23.344;2022-07-23T10:13:50;95548.81;;;39.62;18.97
64668;BME280;51077;42.716;23.344;2022-07-23T10:16:27;95548.28;;;39.82;19.04
64668;BME280;51077;42.716;23.344;2022-07-23T10:18:52;95541.13;;;39.87;18.50
64668;BME280;51077;42.716;23.344;2022-07-23T10:21:24;95544.72;;;39.87;18.59
64668;BME280;51077;42.716;23.344;2022-07-23T10:27:02;95535.59;;;40.26;17.82
64668;BME280;51077;42.716;23.344;2022-07-23T10:37:39;95523.78;;;39.75;16.73
64668;BME280;51077;42.716;23.344;2022-07-23T10:42:40;95523.66;;;39.60;16.50
64668;BME280;51077;42.716;23.344;2022-07-23T10:45:30;95517.44;;;39.94;16.25
64668;BME280;51077;42.716;23.344;2022-07-23T10:48:15;95517.63;;;40.25;16.00
64668;BME280;51077;42.716;23.344;2022-07-23T10:50:41;95517.06;;;40.59;15.80
64668;BME280;51077;42.716;23.344;2022-07-23T10:53:11;95507.75;;;40.71;16.23
64668;BME280;51077;42.716;23.344;2022-07-23T10:55:40;95499.16;;;40.93;15.87
64668;BME280;51077;42.716;23.344;2022-07-23T10:58:06;95497.72;;;40.92;15.65
64668;BME280;51077;42.716;23.344;2022-07-23T11:00:33;95491.28;;;41.12;15.69
64668;BME280;51077;42.716;23.344;2022-07-23T11:03:01;95486.97;;;41.24;15.72
64668;BME280;51077;42.716;23.344;2022-07-23T11:05:43;95488.44;;;41.39;15.77
64668;BME280;51077;42.716;23.344;2022-07-23T11:11:11;95483.38;;;41.64;15.61
64668;BME280;51077;42.716;23.344;2022-07-23T11:13:32;95480.50;;;41.68;15.09
64668;BME280;51077;42.716;23.344;2022-07-23T11:31:59;95455.97;;;41.77;13.99
64668;BME280;51077;42.716;23.344;2022-07-23T11:37:01;95457.41;;;41.86;13.39
64668;BME280;51077;42.716;23.344;2022-07-23T11:39:28;95447.34;;;41.63;13.38
64668;BME280;51077;42.716;23.344;2022-07-23T11:41:55;95455.28;;;41.48;12.97
64668;BME280;51077;42.716;23.344;2022-07-23T11:44:31;95443.75;;;41.34;13.23
64668;BME280;51077;42.716;23.344;2022-07-23T11:47:07;95446.66;;;40.99;13.22
64668;BME280;51077;42.716;23.344;2022-07-23T11:49:34;95440.88;;;40.89;12.85
64668;BME280;51077;42.716;23.344;2022-07-23T11:54:28;95438.72;;;41.53;12.66
64668;BME280;51077;42.716;23.344;2022-07-23T11:57:01;95432.91;;;41.77;12.86
64668;BME280;51077;42.716;23.344;2022-07-23T11:59:28;95426.38;;;41.97;12.63
64668;BME280;51077;42.716;23.344;2022-07-23T12:02:00;95432.78;;;42.16;12.42
64668;BME280;51077;42.716;23.344;2022-07-23T12:04:41;95429.16;;;42.28;12.75
64668;BME280;51077;42.716;23.344;2022-07-23T12:07:26;95428.38;;;42.35;12.75
64668;BME280;51077;42.716;23.344;2022-07-23T12:09:52;95428.34;;;42.39;12.89
64668;BME280;51077;42.716;23.344;2022-07-23T12:12:18;95424.75;;;42.45;12.61
64668;BME280;51077;42.716;23.344;2022-07-23T12:14:52;95417.41;;;42.60;12.40
64668;BME280;51077;42.716;23.344;2022-07-23T12:17:19;95420.97;;;42.71;12.53
64668;BME280;51077;42.716;23.344;2022-07-23T12:19:46;95413.78;;;42.66;12.16
64668;BME280;51077;42.716;23.344;2022-07-23T12:22:12;95412.47;;;42.40;12.49
64668;BME280;51077;42.716;23.344;2022-07-23T12:24:59;95412.53;;;42.34;12.82
64668;BME280;51077;42.716;23.344;2022-07-23T12:27:26;95408.84;;;42.46;12.58
64668;BME280;51077;42.716;23.344;2022-07-23T12:29:52;95401.59;;;42.49;12.87
64668;BME280;51077;42.716;23.344;2022-07-23T12:32:21;95400.09;;;42.64;12.28
64668;BME280;51077;42.716;23.344;2022-07-23T12:35:06;95397.88;;;42.71;12.10
64668;BME280;51077;42.716;23.344;2022-07-23T12:37:37;95393.47;;;42.82;11.56
64668;BME280;51077;42.716;23.344;2022-07-23T12:40:23;95392.19;;;42.63;11.45
64668;BME280;51077;42.716;23.344;2022-07-23T12:42:52;95384.97;;;42.64;11.40
64668;BME280;51077;42.716;23.344;2022-07-23T12:45:18;95391.34;;;42.75;11.76
64668;BME280;51077;42.716;23.344;2022-07-23T12:48:02;95387.72;;;42.78;11.37
64668;BME280;51077;42.716;23.344;2022-07-23T12:53:25;95380.59;;;42.69;11.73
64668;BME280;51077;42.716;23.344;2022-07-23T12:56:06;95375.59;;;42.63;11.39
64668;BME280;51077;42.716;23.344;2022-07-23T12:58:42;95374.88;;;42.59;11.93
64668;BME280;51077;42.716;23.344;2022-07-23T13:01:08;95374.13;;;42.60;11.93
64668;BME280;51077;42.716;23.344;2022-07-23T13:03:38;95372.66;;;42.61;11.96
64668;BME280;51077;42.716;23.344;2022-07-23T13:06:06;95370.59;;;42.48;11.34
64668;BME280;51077;42.716;23.344;2022-07-23T13:08:33;95372.00;;;42.53;11.43
64668;BME280;51077;42.716;23.344;2022-07-23T13:11:00;95366.25;;;42.53;11.19
64668;BME280;51077;42.716;23.344;2022-07-23T13:13:27;95369.19;;;42.47;11.36
64668;BME280;51077;42.716;23.344;2022-07-23T13:15:54;95362.00;;;42.41;11.34
64668;BME280;51077;42.716;23.344;2022-07-23T13:18:19;95370.72;;;42.29;11.41
64668;BME280;51077;42.716;23.344;2022-07-23T13:20:47;95367.16;;;42.21;11.59
64668;BME280;51077;42.716;23.344;2022-07-23T13:23:13;95361.47;;;42.00;11.04
64668;BME280;51077;42.716;23.344;2022-07-23T13:25:39;95368.09;;;41.64;11.58
64668;BME280;51077;42.716;23.344;2022-07-23T13:28:04;95360.22;;;41.36;11.55
64668;BME280;51077;42.716;23.344;2022-07-23T13:30:30;95361.72;;;41.06;11.77
64668;BME280;51077;42.716;23.344;2022-07-23T13:32:56;95361.69;;;40.84;11.92
64668;BME280;51077;42.716;23.344;2022-07-23T13:35:22;95357.41;;;40.62;12.08